sensor_id;sensor_type;location;lat;lon;timestamp;P1;durP1;ratioP1;P2;durP2;ratioP2
19812;SDS011;10066;48.108;11.448;2022-08-24T00:01:01;4.37;;;3.90;;
19812;SDS011;10066;48.108;11.448;2022-08-24T00:03:29;4.73;;;3.77;;
19812;SDS011;10066;48.108;11.448;2022-08-24T00:05:56;5.10;;;3.53;;
19812;SDS011;10066;48.108;11.448;2022-08-24T00:08:23;4.70;;;4.20;;
19812;SDS011;10066;48.108;11.448;2022-08-24T00:10:50;7.70;;;3.93;;
19812;SDS011;10066;48.108;11.448;2022-08-24T00:13:20;5.87;;;3.60;;
19812;SDS011;10066;48.108;11.448;2022-08-24T00:15:47;4.23;;;3.80;;
19812;SDS011;10066;48.108;11.448;2022-08-24T00:18:14;5.13;;;4.20;;
19812;SDS011;10066;48.108;11.448;2022-08-24T00:20:41;4.30;;;3.83;;
19812;SDS011;10066;48.108;11.448;2022-08-24T00:23:09;4.83;;;3.83;;
19812;SDS011;10066;48.108;11.448;2022-08-24T00:25:37;6.13;;;4.60;;
19812;SDS011;10066;48.108;11.448;2022-08-24T00:28:04;4.30;;;3.90;;
19812;SDS011;10066;48.108;11.448;2022-08-24T00:30:33;4.83;;;3.70;;
19812;SDS011;10066;48.108;11.448;2022-08-24T00:33:00;7.33;;;4.07;;
19812;SDS011;10066;48.108;11.448;2022-08-24T00:35:28;6.30;;;4.03;;
19812;SDS011;10066;48.108;11.448;2022-08-24T00:37:55;5.43;;;3.43;;
19812;SDS011;10066;48.108;11.448;2022-08-24T00:40:24;5.60;;;3.57;;
19812;SDS011;10066;48.108;11.448;2022-08-24T00:42:54;4.57;;;3.47;;
19812;SDS011;10066;48.108;11.448;2022-08-24T00:45:24;5.37;;;3.43;;
19812;SDS011;10066;48.108;11.448;2022-08-24T00:47:54;4.10;;;3.20;;
19812;SDS011;10066;48.108;11.448;2022-08-24T00:50:26;5.43;;;3.73;;
19812;SDS011;10066;48.108;11.448;2022-08-24T00:53:01;4.90;;;3.60;;
19812;SDS011;10066;48.108;11.448;2022-08-24T00:55:33;3.70;;;3.33;;
19812;SDS011;10066;48.108;11.448;2022-08-24T00:58:02;5.90;;;3.63;;
19812;SDS011;10066;48.108;11.448;2022-08-24T01:00:36;5.60;;;4.30;;
19812;SDS011;10066;48.108;11.448;2022-08-24T01:03:08;4.07;;;3.57;;
19812;SDS011;10066;48.108;11.448;2022-08-24T01:05:38;5.97;;;3.90;;
19812;SDS011;10066;48.108;11.448;2022-08-24T01:08:08;9.10;;;4.00;;
19812;SDS011;10066;48.108;11.448;2022-08-24T01:10:37;3.90;;;3.50;;
19812;SDS011;10066;48.108;11.448;2022-08-24T01:13:07;4.73;;;3.20;;
19812;SDS011;10066;48.108;11.448;2022-08-24T01:15:37;6.63;;;3.30;;
19812;SDS011;10066;48.108;11.448;2022-08-24T01:18:06;4.97;;;3.63;;
19812;SDS011;10066;48.108;11.448;2022-08-24T01:21:11;3.67;;;3.37;;
19812;SDS011;10066;48.108;11.448;2022-08-24T01:23:43;8.00;;;3.63;;
19812;SDS011;10066;48.108;11.448;2022-08-24T01:26:13;4.83;;;3.70;;
19812;SDS011;10066;48.108;11.448;2022-08-24T01:28:44;4.47;;;3.80;;
19812;SDS011;10066;48.108;11.448;2022-08-24T01:31:14;4.47;;;3.80;;
19812;SDS011;10066;48.108;11.448;2022-08-24T01:33:47;5.47;;;4.00;;
19812;SDS011;10066;48.108;11.448;2022-08-24T01:36:17;4.47;;;3.63;;
19812;SDS011;10066;48.108;11.448;2022-08-24T01:38:50;4.20;;;3.80;;
19812;SDS011;10066;48.108;11.448;2022-08-24T01:41:18;4.80;;;3.90;;
19812;SDS011;10066;48.108;11.448;2022-08-24T01:43:45;4.40;;;3.90;;
19812;SDS011;10066;48.108;11.448;2022-08-24T01:46:12;3.97;;;3.57;;
19812;SDS011;10066;48.108;11.448;2022-08-24T01:48:40;4.30;;;3.90;;
19812;SDS011;10066;48.108;11.448;2022-08-24T01:51:07;6.10;;;4.03;;
19812;SDS011;10066;48.108;11.448;2022-08-24T01:53:34;5.57;;;4.43;;
19812;SDS011;10066;48.108;11.448;2022-08-24T01:56:03;4.03;;;3.73;;
19812;SDS011;10066;48.108;11.448;2022-08-24T01:58:31;6.60;;;4.50;;
19812;SDS011;10066;48.108;11.448;2022-08-24T02:00:58;4.97;;;4.10;;
19812;SDS011;10066;48.108;11.448;2022-08-24T02:03:25;4.70;;;4.30;;
19812;SDS011;10066;48.108;11.448;2022-08-24T02:05:52;6.63;;;4.13;;
19812;SDS011;10066;48.108;11.448;2022-08-24T02:08:19;5.50;;;4.03;;
19812;SDS011;10066;48.108;11.448;2022-08-24T02:10:46;4.70;;;3.70;;
19812;SDS011;10066;48.108;11.448;2022-08-24T02:13:14;4.93;;;4.07;;
19812;SDS011;10066;48.108;11.448;2022-08-24T02:15:41;4.67;;;4.17;;
19812;SDS011;10066;48.108;11.448;2022-08-24T02:18:09;6.40;;;4.40;;
19812;SDS011;10066;48.108;11.448;2022-08-24T02:20:37;5.80;;;4.60;;
19812;SDS011;10066;48.108;11.448;2022-08-24T02:23:04;6.30;;;4.70;;
19812;SDS011;10066;48.108;11.448;2022-08-24T02:25:33;6.03;;;4.43;;
19812;SDS011;10066;48.108;11.448;2022-08-24T02:28:00;5.57;;;4.77;;
19812;SDS011;10066;48.108;11.448;2022-08-24T02:30:29;7.63;;;4.70;;
19812;SDS011;10066;48.108;11.448;2022-08-24T02:32:56;7.07;;;4.90;;
19812;SDS011;10066;48.108;11.448;2022-08-24T02:35:24;4.97;;;4.13;;
19812;SDS011;10066;48.108;11.448;2022-08-24T02:37:51;4.77;;;4.20;;
19812;SDS011;10066;48.108;11.448;2022-08-24T02:40:19;4.50;;;4.10;;
19812;SDS011;10066;48.108;11.448;2022-08-24T02:42:46;5.70;;;4.63;;
19812;SDS011;10066;48.108;11.448;2022-08-24T02:45:13;7.93;;;5.13;;
19812;SDS011;10066;48.108;11.448;2022-08-24T02:47:42;5.00;;;4.50;;
19812;SDS011;10066;48.108;11.448;2022-08-24T02:50:11;5.30;;;4.30;;
19812;SDS011;10066;48.108;11.448;2022-08-24T02:52:40;4.87;;;4.47;;
19812;SDS011;10066;48.108;11.448;2022-08-24T02:55:08;5.27;;;4.53;;
19812;SDS011;10066;48.108;11.448;2022-08-24T02:57:37;5.10;;;4.60;;
19812;SDS011;10066;48.108;11.448;2022-08-24T03:00:06;5.03;;;4.37;;
19812;SDS011;10066;48.108;11.448;2022-08-24T03:02:36;7.43;;;4.50;;
19812;SDS011;10066;48.108;11.448;2022-08-24T03:05:06;6.87;;;4.90;;
19812;SDS011;10066;48.108;11.448;2022-08-24T03:07:34;6.60;;;5.10;;
19812;SDS011;10066;48.108;11.448;2022-08-24T03:10:01;5.37;;;4.87;;
19812;SDS011;10066;48.108;11.448;2022-08-24T03:12:30;5.50;;;5.00;;
19812;SDS011;10066;48.108;11.448;2022-08-24T03:14:56;5.90;;;4.93;;
19812;SDS011;10066;48.108;11.448;2022-08-24T03:17:23;4.67;;;4.27;;
19812;SDS011;10066;48.108;11.448;2022-08-24T03:19:50;5.40;;;4.63;;
19812;SDS011;10066;48.108;11.448;2022-08-24T03:22:19;5.60;;;4.83;;
19812;SDS011;10066;48.108;11.448;2022-08-24T03:24:46;5.33;;;4.93;;
19812;SDS011;10066;48.108;11.448;2022-08-24T03:27:13;5.93;;;5.03;;
19812;SDS011;10066;48.108;11.448;2022-08-24T03:29:40;5.97;;;5.37;;
19812;SDS011;10066;48.108;11.448;2022-08-24T03:32:07;7.33;;;5.40;;
19812;SDS011;10066;48.108;11.448;2022-08-24T03:34:34;7.47;;;5.23;;
19812;SDS011;10066;48.108;11.448;2022-08-24T03:37:02;6.57;;;5.53;;
19812;SDS011;10066;48.108;11.448;2022-08-24T03:39:31;6.07;;;5.17;;
19812;SDS011;10066;48.108;11.448;2022-08-24T03:41:58;6.13;;;5.47;;
19812;SDS011;10066;48.108;11.448;2022-08-24T03:44:25;6.33;;;5.53;;
19812;SDS011;10066;48.108;11.448;2022-08-24T03:46:53;6.37;;;5.63;;
19812;SDS011;10066;48.108;11.448;2022-08-24T03:49:20;5.97;;;5.37;;
19812;SDS011;10066;48.108;11.448;2022-08-24T03:51:47;7.07;;;6.27;;
19812;SDS011;10066;48.108;11.448;2022-08-24T03:54:15;6.10;;;5.50;;
19812;SDS011;10066;48.108;11.448;2022-08-24T03:56:44;6.30;;;5.57;;
19812;SDS011;10066;48.108;11.448;2022-08-24T03:59:11;8.03;;;5.83;;
19812;SDS011;10066;48.108;11.448;2022-08-24T04:01:39;6.20;;;5.60;;
19812;SDS011;10066;48.108;11.448;2022-08-24T04:04:06;7.63;;;5.90;;
19812;SDS011;10066;48.108;11.448;2022-08-24T04:06:33;6.60;;;5.90;;
19812;SDS011;10066;48.108;11.448;2022-08-24T04:09:00;6.13;;;5.53;;
19812;SDS011;10066;48.108;11.448;2022-08-24T04:11:28;6.83;;;6.17;;
19812;SDS011;10066;48.108;11.448;2022-08-24T04:13:57;9.90;;;5.90;;
19812;SDS011;10066;48.108;11.448;2022-08-24T04:16:25;7.80;;;6.43;;
19812;SDS011;10066;48.108;11.448;2022-08-24T04:18:53;7.23;;;6.27;;
19812;SDS011;10066;48.108;11.448;2022-08-24T04:21:22;6.13;;;5.53;;
19812;SDS011;10066;48.108;11.448;2022-08-24T04:23:51;6.07;;;5.20;;
19812;SDS011;10066;48.108;11.448;2022-08-24T04:26:19;7.23;;;5.30;;
19812;SDS011;10066;48.108;11.448;2022-08-24T04:28:48;7.40;;;5.90;;
19812;SDS011;10066;48.108;11.448;2022-08-24T04:31:17;6.50;;;5.93;;
19812;SDS011;10066;48.108;11.448;2022-08-24T04:33:45;6.60;;;5.60;;
19812;SDS011;10066;48.108;11.448;2022-08-24T04:36:14;8.67;;;6.20;;
19812;SDS011;10066;48.108;11.448;2022-08-24T04:38:43;8.07;;;6.00;;
19812;SDS011;10066;48.108;11.448;2022-08-24T04:41:11;7.10;;;6.40;;
19812;SDS011;10066;48.108;11.448;2022-08-24T04:43:39;6.17;;;5.57;;
19812;SDS011;10066;48.108;11.448;2022-08-24T04:46:09;7.07;;;6.37;;
19812;SDS011;10066;48.108;11.448;2022-08-24T04:48:41;8.27;;;6.23;;
19812;SDS011;10066;48.108;11.448;2022-08-24T04:51:09;6.57;;;5.43;;
19812;SDS011;10066;48.108;11.448;2022-08-24T04:53:37;6.00;;;5.40;;
19812;SDS011;10066;48.108;11.448;2022-08-24T04:56:08;5.93;;;5.33;;
19812;SDS011;10066;48.108;11.448;2022-08-24T04:58:36;6.60;;;5.40;;
19812;SDS011;10066;48.108;11.448;2022-08-24T05:01:05;10.33;;;5.60;;
19812;SDS011;10066;48.108;11.448;2022-08-24T05:03:33;6.67;;;5.13;;
19812;SDS011;10066;48.108;11.448;2022-08-24T05:06:03;6.00;;;5.40;;
19812;SDS011;10066;48.108;11.448;2022-08-24T05:08:30;7.90;;;4.67;;
19812;SDS011;10066;48.108;11.448;2022-08-24T05:10:58;5.20;;;4.70;;
19812;SDS011;10066;48.108;11.448;2022-08-24T05:13:25;5.80;;;4.40;;
19812;SDS011;10066;48.108;11.448;2022-08-24T05:15:53;6.33;;;4.87;;
19812;SDS011;10066;48.108;11.448;2022-08-24T05:18:20;6.53;;;4.10;;
19812;SDS011;10066;48.108;11.448;2022-08-24T05:20:47;4.93;;;4.10;;
19812;SDS011;10066;48.108;11.448;2022-08-24T05:23:15;5.73;;;4.43;;
19812;SDS011;10066;48.108;11.448;2022-08-24T05:25:43;6.77;;;4.50;;
19812;SDS011;10066;48.108;11.448;2022-08-24T05:28:11;4.77;;;4.27;;
19812;SDS011;10066;48.108;11.448;2022-08-24T05:30:38;6.03;;;4.27;;
19812;SDS011;10066;48.108;11.448;2022-08-24T05:33:05;7.37;;;4.23;;
19812;SDS011;10066;48.108;11.448;2022-08-24T05:35:35;4.87;;;3.87;;
19812;SDS011;10066;48.108;11.448;2022-08-24T05:38:02;4.43;;;4.03;;
19812;SDS011;10066;48.108;11.448;2022-08-24T05:40:31;5.70;;;3.77;;
19812;SDS011;10066;48.108;11.448;2022-08-24T05:42:59;4.40;;;3.83;;
19812;SDS011;10066;48.108;11.448;2022-08-24T05:45:26;4.93;;;3.83;;
19812;SDS011;10066;48.108;11.448;2022-08-24T05:47:53;6.60;;;3.80;;
19812;SDS011;10066;48.108;11.448;2022-08-24T05:50:20;3.53;;;2.73;;
19812;SDS011;10066;48.108;11.448;2022-08-24T05:52:47;4.27;;;2.90;;
19812;SDS011;10066;48.108;11.448;2022-08-24T05:55:14;3.80;;;3.00;;
19812;SDS011;10066;48.108;11.448;2022-08-24T05:57:43;3.27;;;2.70;;
19812;SDS011;10066;48.108;11.448;2022-08-24T06:00:11;3.40;;;2.60;;
19812;SDS011;10066;48.108;11.448;2022-08-24T06:02:38;5.17;;;2.63;;
19812;SDS011;10066;48.108;11.448;2022-08-24T06:05:06;8.10;;;2.57;;
19812;SDS011;10066;48.108;11.448;2022-08-24T06:07:34;5.60;;;2.93;;
19812;SDS011;10066;48.108;11.448;2022-08-24T06:10:01;3.83;;;2.47;;
19812;SDS011;10066;48.108;11.448;2022-08-24T06:12:29;4.80;;;3.00;;
19812;SDS011;10066;48.108;11.448;2022-08-24T06:14:58;6.33;;;2.90;;
19812;SDS011;10066;48.108;11.448;2022-08-24T06:17:25;2.93;;;2.40;;
19812;SDS011;10066;48.108;11.448;2022-08-24T06:19:52;3.90;;;2.53;;
19812;SDS011;10066;48.108;11.448;2022-08-24T06:22:19;3.27;;;2.20;;
19812;SDS011;10066;48.108;11.448;2022-08-24T06:24:46;8.10;;;3.10;;
19812;SDS011;10066;48.108;11.448;2022-08-24T06:27:31;5.07;;;2.57;;
19812;SDS011;10066;48.108;11.448;2022-08-24T06:30:00;8.17;;;2.60;;
19812;SDS011;10066;48.108;11.448;2022-08-24T06:32:30;4.70;;;2.30;;
19812;SDS011;10066;48.108;11.448;2022-08-24T06:34:57;4.40;;;2.30;;
19812;SDS011;10066;48.108;11.448;2022-08-24T06:37:25;8.53;;;2.83;;
19812;SDS011;10066;48.108;11.448;2022-08-24T06:39:53;8.90;;;2.93;;
19812;SDS011;10066;48.108;11.448;2022-08-24T06:42:20;3.23;;;2.10;;
19812;SDS011;10066;48.108;11.448;2022-08-24T06:44:48;5.30;;;2.30;;
19812;SDS011;10066;48.108;11.448;2022-08-24T06:47:18;7.00;;;2.00;;
19812;SDS011;10066;48.108;11.448;2022-08-24T06:49:45;2.60;;;2.00;;
19812;SDS011;10066;48.108;11.448;2022-08-24T06:52:12;4.37;;;2.20;;
19812;SDS011;10066;48.108;11.448;2022-08-24T06:54:39;2.83;;;1.80;;
19812;SDS011;10066;48.108;11.448;2022-08-24T06:57:07;3.17;;;2.10;;
19812;SDS011;10066;48.108;11.448;2022-08-24T06:59:34;3.27;;;2.10;;
19812;SDS011;10066;48.108;11.448;2022-08-24T07:02:01;2.93;;;2.10;;
19812;SDS011;10066;48.108;11.448;2022-08-24T07:04:30;2.23;;;1.73;;
19812;SDS011;10066;48.108;11.448;2022-08-24T07:06:57;3.10;;;1.90;;
19812;SDS011;10066;48.108;11.448;2022-08-24T07:09:24;3.20;;;2.00;;
19812;SDS011;10066;48.108;11.448;2022-08-24T07:11:52;2.20;;;1.90;;
19812;SDS011;10066;48.108;11.448;2022-08-24T07:14:19;6.10;;;2.23;;
19812;SDS011;10066;48.108;11.448;2022-08-24T07:16:46;3.80;;;2.40;;
19812;SDS011;10066;48.108;11.448;2022-08-24T07:19:13;6.53;;;2.30;;
19812;SDS011;10066;48.108;11.448;2022-08-24T07:21:42;3.63;;;1.83;;
19812;SDS011;10066;48.108;11.448;2022-08-24T07:24:09;5.10;;;1.80;;
19812;SDS011;10066;48.108;11.448;2022-08-24T07:26:36;2.33;;;1.80;;
19812;SDS011;10066;48.108;11.448;2022-08-24T07:29:05;4.10;;;1.80;;
19812;SDS011;10066;48.108;11.448;2022-08-24T07:31:38;4.20;;;2.10;;
19812;SDS011;10066;48.108;11.448;2022-08-24T07:34:06;4.17;;;2.00;;
19812;SDS011;10066;48.108;11.448;2022-08-24T07:36:36;2.30;;;2.10;;
19812;SDS011;10066;48.108;11.448;2022-08-24T07:39:06;7.10;;;2.40;;
19812;SDS011;10066;48.108;11.448;2022-08-24T07:41:36;2.63;;;1.90;;
19812;SDS011;10066;48.108;11.448;2022-08-24T07:44:04;3.67;;;1.83;;
19812;SDS011;10066;48.108;11.448;2022-08-24T07:46:31;4.93;;;1.77;;
19812;SDS011;10066;48.108;11.448;2022-08-24T07:48:58;3.23;;;1.73;;
19812;SDS011;10066;48.108;11.448;2022-08-24T07:51:25;6.40;;;1.97;;
19812;SDS011;10066;48.108;11.448;2022-08-24T07:53:52;2.80;;;1.97;;
19812;SDS011;10066;48.108;11.448;2022-08-24T07:56:21;4.67;;;1.83;;
19812;SDS011;10066;48.108;11.448;2022-08-24T07:58:48;2.90;;;1.70;;
19812;SDS011;10066;48.108;11.448;2022-08-24T08:01:15;2.57;;;1.50;;
19812;SDS011;10066;48.108;11.448;2022-08-24T08:03:43;4.27;;;1.80;;
19812;SDS011;10066;48.108;11.448;2022-08-24T08:06:10;2.90;;;1.80;;
19812;SDS011;10066;48.108;11.448;2022-08-24T08:08:38;3.23;;;1.80;;
19812;SDS011;10066;48.108;11.448;2022-08-24T08:11:07;4.47;;;1.77;;
19812;SDS011;10066;48.108;11.448;2022-08-24T08:13:36;4.00;;;2.00;;
19812;SDS011;10066;48.108;11.448;2022-08-24T08:16:04;5.57;;;1.90;;
19812;SDS011;10066;48.108;11.448;2022-08-24T08:18:33;2.63;;;1.90;;
19812;SDS011;10066;48.108;11.448;2022-08-24T08:21:01;4.17;;;1.83;;
19812;SDS011;10066;48.108;11.448;2022-08-24T08:23:28;3.87;;;1.70;;
19812;SDS011;10066;48.108;11.448;2022-08-24T08:26:13;3.03;;;1.70;;
19812;SDS011;10066;48.108;11.448;2022-08-24T08:28:46;2.20;;;1.60;;
19812;SDS011;10066;48.108;11.448;2022-08-24T08:31:12;4.60;;;1.70;;
19812;SDS011;10066;48.108;11.448;2022-08-24T08:33:40;4.83;;;2.27;;
19812;SDS011;10066;48.108;11.448;2022-08-24T08:36:08;2.37;;;2.00;;
19812;SDS011;10066;48.108;11.448;2022-08-24T08:38:39;2.40;;;1.80;;
19812;SDS011;10066;48.108;11.448;2022-08-24T08:41:12;5.40;;;1.90;;
19812;SDS011;10066;48.108;11.448;2022-08-24T08:44:02;2.57;;;1.90;;
19812;SDS011;10066;48.108;11.448;2022-08-24T08:46:39;2.70;;;1.90;;
19812;SDS011;10066;48.108;11.448;2022-08-24T08:52:35;4.77;;;1.90;;
19812;SDS011;10066;48.108;11.448;2022-08-24T08:55:27;3.67;;;1.90;;
19812;SDS011;10066;48.108;11.448;2022-08-24T08:58:03;3.17;;;2.20;;
19812;SDS011;10066;48.108;11.448;2022-08-24T09:00:44;3.27;;;2.00;;
19812;SDS011;10066;48.108;11.448;2022-08-24T09:06:31;3.20;;;2.07;;
19812;SDS011;10066;48.108;11.448;2022-08-24T09:09:10;4.40;;;2.30;;
19812;SDS011;10066;48.108;11.448;2022-08-24T09:12:03;2.77;;;2.10;;
19812;SDS011;10066;48.108;11.448;2022-08-24T09:14:44;3.30;;;2.07;;
19812;SDS011;10066;48.108;11.448;2022-08-24T09:20:24;2.17;;;1.97;;
19812;SDS011;10066;48.108;11.448;2022-08-24T09:23:11;2.93;;;1.77;;
19812;SDS011;10066;48.108;11.448;2022-08-24T09:25:47;3.93;;;2.00;;
19812;SDS011;10066;48.108;11.448;2022-08-24T09:28:34;3.83;;;2.10;;
19812;SDS011;10066;48.108;11.448;2022-08-24T09:31:12;2.43;;;2.03;;
19812;SDS011;10066;48.108;11.448;2022-08-24T09:33:54;3.57;;;1.80;;
19812;SDS011;10066;48.108;11.448;2022-08-24T09:36:37;4.20;;;2.43;;
19812;SDS011;10066;48.108;11.448;2022-08-24T09:39:13;2.87;;;2.10;;
19812;SDS011;10066;48.108;11.448;2022-08-24T09:42:09;4.07;;;2.23;;
19812;SDS011;10066;48.108;11.448;2022-08-24T09:45:24;2.40;;;2.10;;
19812;SDS011;10066;48.108;11.448;2022-08-24T09:48:29;4.47;;;2.10;;
19812;SDS011;10066;48.108;11.448;2022-08-24T09:51:29;2.67;;;2.10;;
19812;SDS011;10066;48.108;11.448;2022-08-24T09:54:23;4.23;;;2.27;;
19812;SDS011;10066;48.108;11.448;2022-08-24T09:57:15;5.33;;;2.10;;
19812;SDS011;10066;48.108;11.448;2022-08-24T09:59:56;2.57;;;1.97;;
19812;SDS011;10066;48.108;11.448;2022-08-24T10:05:46;5.73;;;2.20;;
19812;SDS011;10066;48.108;11.448;2022-08-24T10:08:37;3.50;;;1.80;;
19812;SDS011;10066;48.108;11.448;2022-08-24T10:11:17;3.33;;;1.90;;
19812;SDS011;10066;48.108;11.448;2022-08-24T10:13:52;2.73;;;2.10;;
19812;SDS011;10066;48.108;11.448;2022-08-24T10:16:33;2.33;;;1.87;;
19812;SDS011;10066;48.108;11.448;2022-08-24T10:21:57;2.50;;;1.73;;
19812;SDS011;10066;48.108;11.448;2022-08-24T10:24:37;2.93;;;2.07;;
19812;SDS011;10066;48.108;11.448;2022-08-24T10:30:20;3.53;;;2.20;;
19812;SDS011;10066;48.108;11.448;2022-08-24T10:33:09;3.77;;;2.13;;
19812;SDS011;10066;48.108;11.448;2022-08-24T10:35:51;3.60;;;2.20;;
19812;SDS011;10066;48.108;11.448;2022-08-24T10:38:33;3.57;;;2.40;;
19812;SDS011;10066;48.108;11.448;2022-08-24T10:44:28;2.40;;;2.20;;
19812;SDS011;10066;48.108;11.448;2022-08-24T10:47:10;2.13;;;1.97;;
19812;SDS011;10066;48.108;11.448;2022-08-24T10:52:58;3.63;;;2.17;;
19812;SDS011;10066;48.108;11.448;2022-08-24T10:55:50;2.60;;;1.90;;
19812;SDS011;10066;48.108;11.448;2022-08-24T10:58:50;4.03;;;2.30;;
19812;SDS011;10066;48.108;11.448;2022-08-24T11:01:37;3.20;;;2.10;;
19812;SDS011;10066;48.108;11.448;2022-08-24T11:04:06;4.17;;;2.07;;
19812;SDS011;10066;48.108;11.448;2022-08-24T11:06:36;2.83;;;2.30;;
19812;SDS011;10066;48.108;11.448;2022-08-24T11:09:06;5.33;;;2.00;;
19812;SDS011;10066;48.108;11.448;2022-08-24T11:11:36;2.50;;;2.10;;
19812;SDS011;10066;48.108;11.448;2022-08-24T11:14:05;4.80;;;2.40;;
19812;SDS011;10066;48.108;11.448;2022-08-24T11:16:37;3.27;;;2.00;;
19812;SDS011;10066;48.108;11.448;2022-08-24T11:19:07;3.60;;;2.20;;
19812;SDS011;10066;48.108;11.448;2022-08-24T11:21:45;2.20;;;1.97;;
19812;SDS011;10066;48.108;11.448;2022-08-24T11:24:25;4.17;;;2.20;;
19812;SDS011;10066;48.108;11.448;2022-08-24T11:26:55;2.53;;;2.00;;
19812;SDS011;10066;48.108;11.448;2022-08-24T11:29:25;3.13;;;1.97;;
19812;SDS011;10066;48.108;11.448;2022-08-24T11:31:57;2.40;;;2.20;;
19812;SDS011;10066;48.108;11.448;2022-08-24T11:34:33;3.77;;;1.90;;
19812;SDS011;10066;48.108;11.448;2022-08-24T11:37:04;2.13;;;1.60;;
19812;SDS011;10066;48.108;11.448;2022-08-24T11:39:40;3.43;;;1.90;;
19812;SDS011;10066;48.108;11.448;2022-08-24T11:42:10;2.07;;;1.80;;
19812;SDS011;10066;48.108;11.448;2022-08-24T11:44:47;4.60;;;2.33;;
19812;SDS011;10066;48.108;11.448;2022-08-24T11:47:25;3.20;;;2.10;;
19812;SDS011;10066;48.108;11.448;2022-08-24T11:50:03;2.70;;;2.10;;
19812;SDS011;10066;48.108;11.448;2022-08-24T11:52:41;2.80;;;2.00;;
19812;SDS011;10066;48.108;11.448;2022-08-24T11:55:16;2.17;;;1.93;;
19812;SDS011;10066;48.108;11.448;2022-08-24T11:57:50;2.43;;;2.00;;
19812;SDS011;10066;48.108;11.448;2022-08-24T12:00:22;3.30;;;1.93;;
19812;SDS011;10066;48.108;11.448;2022-08-24T12:02:54;4.73;;;2.00;;
19812;SDS011;10066;48.108;11.448;2022-08-24T12:05:30;3.77;;;2.07;;
19812;SDS011;10066;48.108;11.448;2022-08-24T12:08:09;4.43;;;2.23;;
19812;SDS011;10066;48.108;11.448;2022-08-24T12:10:48;3.60;;;2.27;;
19812;SDS011;10066;48.108;11.448;2022-08-24T12:13:27;3.83;;;1.70;;
19812;SDS011;10066;48.108;11.448;2022-08-24T12:16:02;2.53;;;1.83;;
19812;SDS011;10066;48.108;11.448;2022-08-24T12:18:40;3.73;;;2.00;;
19812;SDS011;10066;48.108;11.448;2022-08-24T12:21:16;2.50;;;2.03;;
19812;SDS011;10066;48.108;11.448;2022-08-24T12:23:46;2.73;;;1.90;;
19812;SDS011;10066;48.108;11.448;2022-08-24T12:26:18;3.23;;;1.93;;
19812;SDS011;10066;48.108;11.448;2022-08-24T12:28:51;5.30;;;1.97;;
19812;SDS011;10066;48.108;11.448;2022-08-24T12:31:20;2.33;;;1.70;;
19812;SDS011;10066;48.108;11.448;2022-08-24T12:33:53;3.17;;;2.00;;
19812;SDS011;10066;48.108;11.448;2022-08-24T12:36:24;3.23;;;2.10;;
19812;SDS011;10066;48.108;11.448;2022-08-24T12:39:01;3.83;;;1.87;;
19812;SDS011;10066;48.108;11.448;2022-08-24T12:41:33;2.47;;;1.87;;
19812;SDS011;10066;48.108;11.448;2022-08-24T12:44:06;2.47;;;1.90;;
19812;SDS011;10066;48.108;11.448;2022-08-24T12:46:38;2.43;;;1.80;;
19812;SDS011;10066;48.108;11.448;2022-08-24T12:49:10;2.17;;;1.80;;
19812;SDS011;10066;48.108;11.448;2022-08-24T12:51:47;3.40;;;1.90;;
19812;SDS011;10066;48.108;11.448;2022-08-24T12:54:33;1.87;;;1.57;;
19812;SDS011;10066;48.108;11.448;2022-08-24T12:57:26;1.80;;;1.70;;
19812;SDS011;10066;48.108;11.448;2022-08-24T13:00:00;2.03;;;1.57;;
19812;SDS011;10066;48.108;11.448;2022-08-24T13:02:34;3.87;;;1.40;;
19812;SDS011;10066;48.108;11.448;2022-08-24T13:05:09;1.90;;;1.67;;
19812;SDS011;10066;48.108;11.448;2022-08-24T13:07:40;1.70;;;1.60;;
19812;SDS011;10066;48.108;11.448;2022-08-24T13:10:11;2.00;;;1.43;;
19812;SDS011;10066;48.108;11.448;2022-08-24T13:12:46;2.23;;;1.50;;
19812;SDS011;10066;48.108;11.448;2022-08-24T13:21:42;1.70;;;1.57;;
19812;SDS011;10066;48.108;11.448;2022-08-24T13:30:34;1.83;;;1.57;;
19812;SDS011;10066;48.108;11.448;2022-08-24T13:33:18;2.17;;;1.60;;
19812;SDS011;10066;48.108;11.448;2022-08-24T13:35:59;2.10;;;1.43;;
19812;SDS011;10066;48.108;11.448;2022-08-24T13:41:38;2.90;;;1.70;;
19812;SDS011;10066;48.108;11.448;2022-08-24T13:44:25;3.83;;;1.70;;
19812;SDS011;10066;48.108;11.448;2022-08-24T13:47:05;2.47;;;1.47;;
19812;SDS011;10066;48.108;11.448;2022-08-24T13:49:46;3.90;;;1.70;;
19812;SDS011;10066;48.108;11.448;2022-08-24T13:52:22;2.70;;;1.53;;
19812;SDS011;10066;48.108;11.448;2022-08-24T13:58:12;1.93;;;1.60;;
19812;SDS011;10066;48.108;11.448;2022-08-24T14:00:48;2.43;;;1.30;;
19812;SDS011;10066;48.108;11.448;2022-08-24T14:03:25;1.97;;;1.57;;
19812;SDS011;10066;48.108;11.448;2022-08-24T14:06:19;4.17;;;1.37;;
19812;SDS011;10066;48.108;11.448;2022-08-24T14:08:56;1.80;;;1.50;;
19812;SDS011;10066;48.108;11.448;2022-08-24T14:11:39;4.60;;;1.67;;
19812;SDS011;10066;48.108;11.448;2022-08-24T14:14:15;3.70;;;1.50;;
19812;SDS011;10066;48.108;11.448;2022-08-24T14:16:51;1.87;;;1.47;;
19812;SDS011;10066;48.108;11.448;2022-08-24T14:19:49;6.23;;;1.50;;
19812;SDS011;10066;48.108;11.448;2022-08-24T14:22:27;1.50;;;1.40;;
19812;SDS011;10066;48.108;11.448;2022-08-24T14:25:03;4.37;;;1.70;;
19812;SDS011;10066;48.108;11.448;2022-08-24T14:27:45;3.43;;;1.63;;
19812;SDS011;10066;48.108;11.448;2022-08-24T14:33:07;2.63;;;1.60;;
19812;SDS011;10066;48.108;11.448;2022-08-24T14:35:43;2.10;;;1.77;;
19812;SDS011;10066;48.108;11.448;2022-08-24T14:38:27;5.70;;;1.60;;
19812;SDS011;10066;48.108;11.448;2022-08-24T14:44:09;1.83;;;1.50;;
19812;SDS011;10066;48.108;11.448;2022-08-24T14:46:53;2.53;;;1.40;;
19812;SDS011;10066;48.108;11.448;2022-08-24T14:49:32;2.13;;;1.40;;
19812;SDS011;10066;48.108;11.448;2022-08-24T14:52:07;1.60;;;1.50;;
19812;SDS011;10066;48.108;11.448;2022-08-24T14:54:40;1.90;;;1.70;;
19812;SDS011;10066;48.108;11.448;2022-08-24T14:57:19;1.90;;;1.57;;
19812;SDS011;10066;48.108;11.448;2022-08-24T15:00:04;4.60;;;2.00;;
19812;SDS011;10066;48.108;11.448;2022-08-24T15:02:46;2.00;;;1.53;;
19812;SDS011;10066;48.108;11.448;2022-08-24T15:05:37;2.43;;;1.60;;
19812;SDS011;10066;48.108;11.448;2022-08-24T15:08:09;1.60;;;1.50;;
19812;SDS011;10066;48.108;11.448;2022-08-24T15:10:44;2.87;;;1.40;;
19812;SDS011;10066;48.108;11.448;2022-08-24T15:13:22;3.10;;;1.57;;
19812;SDS011;10066;48.108;11.448;2022-08-24T15:15:56;1.80;;;1.50;;
19812;SDS011;10066;48.108;11.448;2022-08-24T15:18:27;1.50;;;1.40;;
19812;SDS011;10066;48.108;11.448;2022-08-24T15:21:04;2.23;;;1.60;;
19812;SDS011;10066;48.108;11.448;2022-08-24T15:26:30;3.53;;;1.57;;
19812;SDS011;10066;48.108;11.448;2022-08-24T15:29:08;4.63;;;1.60;;
19812;SDS011;10066;48.108;11.448;2022-08-24T15:31:41;1.87;;;1.60;;
19812;SDS011;10066;48.108;11.448;2022-08-24T15:34:19;4.03;;;1.90;;
19812;SDS011;10066;48.108;11.448;2022-08-24T15:37:02;1.80;;;1.70;;
19812;SDS011;10066;48.108;11.448;2022-08-24T15:39:29;4.93;;;1.83;;
19812;SDS011;10066;48.108;11.448;2022-08-24T15:41:57;2.73;;;1.80;;
19812;SDS011;10066;48.108;11.448;2022-08-24T15:44:29;7.13;;;1.90;;
19812;SDS011;10066;48.108;11.448;2022-08-24T15:47:00;2.00;;;1.60;;
19812;SDS011;10066;48.108;11.448;2022-08-24T15:49:30;1.60;;;1.50;;
19812;SDS011;10066;48.108;11.448;2022-08-24T15:52:03;1.77;;;1.60;;
19812;SDS011;10066;48.108;11.448;2022-08-24T15:54:33;1.83;;;1.43;;
19812;SDS011;10066;48.108;11.448;2022-08-24T15:57:03;1.60;;;1.40;;